createdAt,value
2017-12-11T00:00:31.046Z,977.59
2017-12-11T00:01:40.851Z,977.56
2017-12-11T00:02:50.669Z,977.6
2017-12-11T00:04:00.211Z,977.62
2017-12-11T00:05:09.748Z,977.59
2017-12-11T00:06:19.860Z,977.56
2017-12-11T00:07:29.940Z,977.54
2017-12-11T00:08:40.028Z,977.43
2017-12-11T00:09:50.161Z,977.45
2017-12-11T00:10:59.940Z,977.39
2017-12-11T00:12:09.997Z,977.34
2017-12-11T00:13:20.070Z,977.28
2017-12-11T00:14:29.862Z,977.21
2017-12-11T00:15:39.453Z,977.16
2017-12-11T00:16:49.248Z,977.12
2017-12-11T00:17:59.343Z,977.04
2017-12-11T00:19:09.131Z,977.01
2017-12-11T00:20:21.296Z,977.01
2017-12-11T00:21:31.367Z,977
2017-12-11T00:22:42.414Z,976.97
2017-12-11T00:23:52.466Z,976.98
2017-12-11T00:25:02.522Z,976.97
2017-12-11T00:26:12.351Z,977.03
2017-12-11T00:27:22.413Z,976.96
2017-12-11T00:28:33.223Z,976.93
2017-12-11T00:29:43.054Z,976.89
2017-12-11T00:30:53.186Z,976.92
2017-12-11T00:32:03.248Z,976.99
2017-12-11T00:33:13.052Z,977.02
2017-12-11T00:34:23.096Z,977.01
2017-12-11T00:35:32.624Z,977.04
2017-12-11T00:36:42.163Z,977.02
2017-12-11T00:37:52.275Z,977.03
2017-12-11T00:39:02.330Z,977.01
2017-12-11T00:40:11.866Z,977.03
2017-12-11T00:41:21.934Z,976.97
2017-12-11T00:42:31.999Z,977.05
2017-12-11T00:43:42.045Z,977.01
2017-12-11T00:44:52.115Z,976.98
2017-12-11T00:46:02.168Z,976.94
2017-12-11T00:47:11.972Z,976.89
2017-12-11T00:48:21.502Z,976.88
2017-12-11T00:49:31.566Z,976.89
2017-12-11T00:50:41.641Z,976.9
2017-12-11T00:51:51.698Z,976.88
2017-12-11T00:53:01.761Z,976.94
2017-12-11T00:54:11.301Z,976.99
2017-12-11T00:55:20.839Z,977.03
2017-12-11T00:56:30.881Z,977.04
2017-12-11T00:57:40.918Z,977
2017-12-11T00:58:50.963Z,976.96
2017-12-11T01:00:00.746Z,976.86
2017-12-11T01:01:10.538Z,976.83
2017-12-11T01:02:20.643Z,976.91
2017-12-11T01:03:32.545Z,976.95
2017-12-11T01:04:42.598Z,976.88
2017-12-11T01:05:52.385Z,976.82
2017-12-11T01:07:02.441Z,976.81
2017-12-11T01:08:12.263Z,976.81
2017-12-11T01:09:21.784Z,976.74
2017-12-11T01:10:31.326Z,976.72
2017-12-11T01:11:41.383Z,976.78
2017-12-11T01:12:51.443Z,976.76
2017-12-11T01:14:01.502Z,976.8
2017-12-11T01:15:11.553Z,976.78
2017-12-11T01:16:21.995Z,976.71
2017-12-11T01:17:32.032Z,976.67
2017-12-11T01:18:42.080Z,976.61
2017-12-11T01:19:51.876Z,976.66
2017-12-11T01:21:01.937Z,976.77
2017-12-11T01:22:11.979Z,976.79
2017-12-11T01:23:21.523Z,976.82
2017-12-11T01:24:31.307Z,976.81
2017-12-11T01:25:41.417Z,976.77
2017-12-11T01:26:51.480Z,976.71
2017-12-11T01:28:01.526Z,976.7
2017-12-11T01:29:11.588Z,976.69
2017-12-11T01:30:21.661Z,976.67
2017-12-11T01:31:31.707Z,976.62
2017-12-11T01:32:41.509Z,976.58
2017-12-11T01:33:51.557Z,976.49
2017-12-11T01:35:01.605Z,976.46
2017-12-11T01:36:11.655Z,976.4
2017-12-11T01:37:21.724Z,976.34
2017-12-11T01:38:31.781Z,976.33
2017-12-11T01:39:41.844Z,976.3
2017-12-11T01:40:51.387Z,976.2
2017-12-11T01:42:01.434Z,976.22
2017-12-11T01:43:11.844Z,976.19
2017-12-11T01:44:21.908Z,976.14
2017-12-11T01:45:31.960Z,976.04
2017-12-11T01:46:42.019Z,975.99
2017-12-11T01:47:51.807Z,976
2017-12-11T01:49:01.975Z,976.03
2017-12-11T01:50:11.507Z,975.99
2017-12-11T01:51:21.287Z,975.99
2017-12-11T01:52:32.534Z,975.99
2017-12-11T01:53:42.578Z,975.98
2017-12-11T01:54:52.363Z,975.95
2017-12-11T01:56:02.154Z,975.99
2017-12-11T01:57:12.258Z,976.11
2017-12-11T01:58:22.322Z,976.21
2017-12-11T01:59:32.387Z,976.24
2017-12-11T02:00:42.486Z,976.31
2017-12-11T02:01:52.289Z,976.3
2017-12-11T02:03:02.345Z,976.33
2017-12-11T02:04:12.391Z,976.38
2017-12-11T02:05:22.175Z,976.37
2017-12-11T02:06:32.281Z,976.42
2017-12-11T02:07:42.112Z,976.39
2017-12-11T02:08:51.957Z,976.34
2017-12-11T02:10:01.741Z,976.28
2017-12-11T02:11:11.792Z,976.28
2017-12-11T02:12:21.859Z,976.37
2017-12-11T02:13:31.651Z,976.46
2017-12-11T02:14:41.713Z,976.6
2017-12-11T02:15:51.785Z,976.55
2017-12-11T02:17:01.894Z,976.56
2017-12-11T02:18:11.943Z,976.56
2017-12-11T02:19:22.016Z,976.55
2017-12-11T02:20:31.802Z,976.59
2017-12-11T02:21:41.330Z,976.6
2017-12-11T02:22:51.394Z,976.54
2017-12-11T02:24:01.177Z,976.47
2017-12-11T02:25:10.964Z,976.41
2017-12-11T02:26:21.012Z,976.41
2017-12-11T02:27:31.060Z,976.38
2017-12-11T02:28:41.145Z,976.32
2017-12-11T02:29:51.200Z,976.29
2017-12-11T02:31:01.263Z,976.18
2017-12-11T02:32:11.069Z,976.15
2017-12-11T02:33:21.141Z,976.1
2017-12-11T02:34:31.747Z,976.11
2017-12-11T02:35:41.799Z,976.09
2017-12-11T02:36:51.889Z,975.95
2017-12-11T02:38:01.949Z,975.91
2017-12-11T02:39:12.409Z,975.94
2017-12-11T02:40:22.209Z,975.77
2017-12-11T02:41:32.272Z,975.65
2017-12-11T02:42:42.382Z,975.68
2017-12-11T02:43:51.913Z,975.74
2017-12-11T02:45:01.437Z,975.88
2017-12-11T02:46:11.539Z,975.97
2017-12-11T02:47:21.599Z,976.04
2017-12-11T02:48:31.123Z,976.12
2017-12-11T02:49:41.187Z,976.15
2017-12-11T02:50:51.265Z,976.15
2017-12-11T02:52:01.387Z,976.15
2017-12-11T02:53:11.174Z,976.16
2017-12-11T02:54:21.229Z,976.22
2017-12-11T02:55:31.286Z,976.2
2017-12-11T02:56:41.352Z,976.18
2017-12-11T02:57:50.899Z,976.19
2017-12-11T02:59:01.017Z,976.15
2017-12-11T03:00:11.081Z,976.15
2017-12-11T03:01:21.127Z,976.14
2017-12-11T03:02:30.909Z,976.16
2017-12-11T03:33:52.315Z,976.14
2017-12-11T03:35:02.358Z,976.16
2017-12-11T03:36:12.406Z,976.18
2017-12-11T03:37:22.178Z,976.17
2017-12-11T03:38:31.948Z,976.19
2017-12-11T03:39:42.047Z,976.15
2017-12-11T03:40:53.427Z,976.21
2017-12-11T03:42:03.228Z,976.26
2017-12-11T03:43:13.017Z,976.3
2017-12-11T03:44:23.067Z,976.26
2017-12-11T03:45:33.105Z,976.19
2017-12-11T03:46:43.140Z,976.17
2017-12-11T03:47:53.211Z,976.09
2017-12-11T03:49:03.321Z,976.09
2017-12-11T03:50:13.373Z,976.04
2017-12-11T03:51:22.635Z,976.03
2017-12-11T03:52:32.679Z,976
2017-12-11T03:53:42.208Z,975.87
2017-12-11T03:54:52.248Z,975.88
2017-12-11T03:56:02.035Z,976.06
2017-12-11T03:57:12.089Z,976.09
2017-12-11T03:58:21.873Z,976.07
2017-12-11T03:59:31.655Z,976.1
2017-12-11T04:00:41.740Z,976.12
2017-12-11T04:01:51.240Z,976.13
2017-12-11T04:03:01.080Z,976.07
2017-12-11T04:04:11.127Z,976.02
2017-12-11T04:05:20.927Z,975.96
2017-12-11T04:06:30.713Z,975.99
2017-12-11T04:07:40.770Z,975.96
2017-12-11T04:08:50.841Z,975.96
2017-12-11T04:10:00.640Z,975.93
2017-12-11T04:11:10.688Z,975.86
2017-12-11T04:12:20.736Z,975.8
2017-12-11T04:13:30.797Z,975.84
2017-12-11T04:14:40.853Z,975.84
2017-12-11T04:15:50.898Z,975.84
2017-12-11T04:17:01.182Z,975.75
2017-12-11T04:18:11.229Z,975.73
2017-12-11T04:19:21.281Z,975.67
2017-12-11T04:20:31.077Z,975.65
2017-12-11T04:21:41.147Z,975.62
2017-12-11T04:22:51.210Z,975.69
2017-12-11T04:24:00.733Z,975.73
2017-12-11T04:25:10.774Z,975.75
2017-12-11T04:26:20.876Z,975.71
2017-12-11T04:27:30.652Z,975.63
2017-12-11T04:28:40.429Z,975.62
2017-12-11T04:29:50.206Z,975.54
2017-12-11T04:31:00.250Z,975.4
2017-12-11T04:32:10.365Z,975.38
2017-12-11T04:33:21.573Z,975.35
2017-12-11T04:34:31.359Z,975.35
2017-12-11T04:35:41.421Z,975.44
2017-12-11T04:36:51.478Z,975.55
2017-12-11T04:38:01.000Z,975.5
2017-12-11T04:39:11.061Z,975.57
2017-12-11T04:40:20.860Z,975.56
2017-12-11T04:41:30.390Z,975.63
2017-12-11T04:42:40.451Z,975.7
2017-12-11T04:43:50.252Z,975.67
2017-12-11T04:45:00.104Z,975.64
2017-12-11T04:46:09.634Z,975.6
2017-12-11T04:47:19.474Z,975.5
2017-12-11T04:48:29.529Z,975.37
2017-12-11T04:49:39.062Z,975.32
2017-12-11T04:50:49.759Z,975.52
2017-12-11T04:51:59.564Z,975.61
2017-12-11T04:53:09.613Z,975.64
2017-12-11T04:54:19.405Z,975.52
2017-12-11T04:55:29.469Z,975.45
2017-12-11T04:56:39.512Z,975.41
2017-12-11T04:57:49.304Z,975.49
2017-12-11T04:58:59.359Z,975.49
2017-12-11T05:00:09.146Z,975.6
2017-12-11T05:01:19.010Z,975.62
2017-12-11T05:02:28.550Z,975.61
2017-12-11T05:03:38.615Z,975.67
2017-12-11T05:04:48.649Z,975.71
2017-12-11T05:05:58.436Z,975.7
2017-12-11T05:07:09.847Z,975.71
2017-12-11T05:08:19.894Z,975.71
2017-12-11T05:09:29.155Z,975.65
2017-12-11T05:10:38.985Z,975.73
2017-12-11T05:11:49.043Z,975.75
2017-12-11T05:12:58.881Z,975.73
2017-12-11T05:14:08.669Z,975.67
2017-12-11T05:15:17.936Z,975.64
2017-12-11T05:16:28.001Z,975.61
2017-12-11T05:17:38.052Z,975.58
2017-12-11T05:18:48.104Z,975.54
2017-12-11T05:19:57.894Z,975.51
2017-12-11T05:21:07.949Z,975.49
2017-12-11T05:22:17.739Z,975.49
2017-12-11T05:23:27.271Z,975.56
2017-12-11T05:24:37.308Z,975.59
2017-12-11T05:25:46.836Z,975.55
2017-12-11T05:26:56.631Z,975.54
2017-12-11T05:28:06.699Z,975.53
2017-12-11T05:29:16.489Z,975.59
2017-12-11T05:30:26.593Z,975.65
2017-12-11T05:31:36.389Z,975.69
2017-12-11T05:32:46.445Z,975.68
2017-12-11T05:33:56.497Z,975.73
2017-12-11T05:35:06.555Z,975.69
2017-12-11T05:36:16.342Z,975.73
2017-12-11T05:37:25.863Z,975.69
2017-12-11T05:38:35.405Z,975.65
2017-12-11T05:39:45.196Z,975.58
2017-12-11T05:40:55.252Z,975.64
2017-12-11T05:42:05.463Z,975.6
2017-12-11T05:43:15.510Z,975.63
2017-12-11T05:44:25.295Z,975.57
2017-12-11T05:45:35.394Z,975.52
2017-12-11T05:46:45.186Z,975.59
2017-12-11T05:47:54.708Z,975.5
2017-12-11T05:49:04.235Z,975.5
2017-12-11T05:50:14.311Z,975.54
2017-12-11T05:51:24.389Z,975.47
2017-12-11T05:52:34.178Z,975.44
2017-12-11T05:53:43.978Z,975.44
2017-12-11T05:54:54.048Z,975.45
2017-12-11T05:56:04.121Z,975.5
2017-12-11T05:57:14.217Z,975.51
2017-12-11T05:58:23.747Z,975.48
2017-12-11T05:59:33.271Z,975.51
2017-12-11T06:00:43.192Z,975.5
2017-12-11T06:01:52.980Z,975.5
2017-12-11T06:03:03.100Z,975.55
2017-12-11T06:04:12.902Z,975.54
2017-12-11T06:05:23.525Z,975.59
2017-12-11T06:06:33.320Z,975.63
2017-12-11T06:07:43.174Z,975.52
2017-12-11T06:08:52.972Z,975.58
2017-12-11T06:10:03.032Z,975.54
2017-12-11T06:11:12.829Z,975.53
2017-12-11T06:12:22.884Z,975.56
2017-12-11T06:13:32.697Z,975.53
2017-12-11T06:14:42.543Z,975.51
2017-12-11T06:15:52.336Z,975.46
2017-12-11T06:17:02.406Z,975.51
2017-12-11T06:18:12.216Z,975.54
2017-12-11T06:19:22.017Z,975.57
2017-12-11T06:20:32.124Z,975.59
2017-12-11T06:21:41.950Z,975.6
2017-12-11T06:22:52.022Z,975.66
2017-12-11T06:24:02.082Z,975.67
2017-12-11T06:25:12.136Z,975.64
2017-12-11T06:26:22.190Z,975.6
2017-12-11T06:27:32.243Z,975.63
2017-12-11T06:28:41.525Z,975.65
2017-12-11T06:29:51.320Z,975.69
2017-12-11T06:31:01.136Z,975.64
2017-12-11T06:32:10.700Z,975.65
2017-12-11T06:33:20.495Z,975.63
2017-12-11T06:34:30.029Z,975.66
2017-12-11T06:35:40.075Z,975.67
2017-12-11T06:36:50.130Z,975.7
2017-12-11T06:38:00.173Z,975.75
2017-12-11T06:39:10.219Z,975.73
2017-12-11T06:40:19.758Z,975.77
2017-12-11T06:41:29.549Z,975.82
2017-12-11T06:42:39.594Z,975.82
2017-12-11T06:43:49.633Z,975.75
2017-12-11T06:44:59.728Z,975.8
2017-12-11T06:46:09.786Z,975.79
2017-12-11T06:47:19.321Z,975.85
2017-12-11T06:48:29.114Z,975.77
2017-12-11T06:49:39.172Z,975.79
2017-12-11T06:50:48.707Z,975.72
2017-12-11T06:51:58.505Z,975.78
2017-12-11T06:53:08.286Z,975.82
2017-12-11T06:54:18.067Z,975.78
2017-12-11T06:55:27.870Z,975.79
2017-12-11T06:56:37.933Z,975.8
2017-12-11T06:57:47.713Z,975.74
2017-12-11T06:58:57.765Z,975.71
2017-12-11T07:00:07.840Z,975.7
2017-12-11T07:01:17.917Z,975.64
2017-12-11T07:02:28.015Z,975.67
2017-12-11T07:03:38.112Z,975.6
2017-12-11T07:04:47.936Z,975.63
2017-12-11T07:05:57.976Z,975.6
2017-12-11T07:07:07.777Z,975.63
2017-12-11T07:08:17.815Z,975.65
2017-12-11T07:09:27.366Z,975.53
2017-12-11T07:10:37.423Z,975.52
2017-12-11T07:11:46.951Z,975.51
2017-12-11T07:12:57.008Z,975.49
2017-12-11T07:14:06.549Z,975.49
2017-12-11T07:15:16.596Z,975.48
2017-12-11T07:16:26.660Z,975.49
2017-12-11T07:17:36.452Z,975.51
2017-12-11T07:18:46.514Z,975.46
2017-12-11T07:19:56.364Z,975.51
2017-12-11T07:21:05.904Z,975.47
2017-12-11T07:22:15.710Z,975.58
2017-12-11T07:23:25.753Z,975.51
2017-12-11T07:24:35.544Z,975.55
2017-12-11T07:25:45.346Z,975.5
2017-12-11T07:26:55.142Z,975.48
2017-12-11T07:28:04.661Z,975.52
2017-12-11T07:29:14.704Z,975.5
2017-12-11T07:30:24.773Z,975.56
2017-12-11T07:31:34.830Z,975.6
2017-12-11T07:32:44.887Z,975.64
2017-12-11T07:33:55.901Z,975.63
2017-12-11T07:35:05.956Z,975.68
2017-12-11T07:36:15.755Z,975.68
2017-12-11T07:37:25.813Z,975.63
2017-12-11T07:38:35.600Z,975.71
2017-12-11T07:39:45.127Z,975.75
2017-12-11T07:40:55.202Z,975.81
2017-12-11T07:42:05.280Z,975.82
2017-12-11T07:43:15.073Z,975.81
2017-12-11T07:44:24.870Z,975.81
2017-12-11T07:45:34.661Z,975.83
2017-12-11T07:46:44.727Z,975.81
2017-12-11T07:47:54.825Z,975.87
2017-12-11T07:49:04.894Z,975.78
2017-12-11T07:50:14.950Z,975.86
2017-12-11T07:51:24.745Z,975.86
2017-12-11T07:52:34.802Z,975.89
2017-12-11T07:53:44.866Z,975.95
2017-12-11T07:54:54.703Z,975.88
2017-12-11T07:56:04.232Z,975.89
2017-12-11T07:57:14.018Z,975.89
2017-12-11T07:58:24.081Z,975.79
2017-12-11T07:59:35.003Z,975.84
2017-12-11T08:00:45.079Z,975.8
2017-12-11T08:01:54.866Z,975.84
2017-12-11T08:03:04.651Z,975.86
2017-12-11T08:04:14.447Z,975.86
2017-12-11T08:05:23.989Z,975.8
2017-12-11T08:06:34.118Z,975.7
2017-12-11T08:07:44.174Z,975.72
2017-12-11T08:08:53.992Z,975.77
2017-12-11T08:10:03.770Z,975.74
2017-12-11T08:11:13.576Z,975.7
2017-12-11T08:12:23.680Z,975.71
2017-12-11T08:13:33.222Z,975.74
2017-12-11T08:14:43.273Z,975.75
2017-12-11T08:15:53.344Z,975.67
2017-12-11T08:17:03.132Z,975.63
2017-12-11T08:18:12.936Z,975.67
2017-12-11T08:19:23.430Z,975.59
2017-12-11T08:20:33.204Z,975.71
2017-12-11T08:21:44.632Z,975.75
2017-12-11T08:22:54.716Z,975.79
2017-12-11T08:24:04.786Z,975.65
2017-12-11T08:25:14.840Z,975.59
2017-12-11T08:26:24.583Z,975.66
2017-12-11T08:27:34.635Z,975.65
2017-12-11T08:28:44.691Z,975.72
2017-12-11T08:29:54.853Z,975.67
2017-12-11T08:31:04.638Z,975.68
2017-12-11T08:32:14.431Z,975.7
2017-12-11T08:33:23.962Z,975.61
2017-12-11T08:34:33.765Z,975.67
2017-12-11T08:35:43.564Z,975.7
2017-12-11T08:36:53.364Z,975.65
2017-12-11T08:38:03.164Z,975.56
2017-12-11T08:39:12.954Z,975.62
2017-12-11T08:40:22.763Z,975.57
2017-12-11T08:41:32.559Z,975.57
2017-12-11T08:42:42.622Z,975.56
2017-12-11T08:43:52.431Z,975.49
2017-12-11T08:45:02.227Z,975.46
2017-12-11T08:46:12.027Z,975.44
2017-12-11T08:47:22.937Z,975.55
2017-12-11T08:48:32.990Z,975.49
2017-12-11T08:49:43.058Z,975.43
2017-12-11T08:50:52.863Z,975.43
2017-12-11T08:52:02.982Z,975.41
2017-12-11T08:53:13.050Z,975.37
2017-12-11T08:54:22.620Z,975.36
2017-12-11T08:55:32.412Z,975.32
2017-12-11T08:56:42.499Z,975.28
2017-12-11T08:57:52.305Z,975.29
2017-12-11T08:59:02.101Z,975.19
2017-12-11T09:00:11.627Z,975.19
2017-12-11T09:01:21.409Z,975.21
2017-12-11T09:02:31.470Z,975.28
2017-12-11T09:03:41.524Z,975.18
2017-12-11T09:04:51.320Z,975.27
2017-12-11T09:06:01.137Z,975.27
2017-12-11T09:07:11.198Z,975.29
2017-12-11T09:08:21.007Z,975.26
2017-12-11T09:09:30.814Z,975.4
2017-12-11T09:10:40.910Z,975.36
2017-12-11T09:11:50.964Z,975.35
2017-12-11T09:13:01.042Z,975.42
2017-12-11T09:14:11.088Z,975.39
2017-12-11T09:15:21.137Z,975.39
2017-12-11T09:16:32.708Z,975.38
2017-12-11T09:17:42.763Z,975.4
2017-12-11T09:18:52.849Z,975.3
2017-12-11T09:20:02.463Z,975.42
2017-12-11T09:21:12.251Z,975.3
2017-12-11T09:22:22.347Z,975.25
2017-12-11T09:23:32.433Z,975.33
2017-12-11T09:24:42.222Z,975.3
2017-12-11T09:25:52.618Z,975.42
2017-12-11T09:27:02.673Z,975.33
2017-12-11T09:28:12.472Z,975.4
2017-12-11T09:29:21.994Z,975.49
2017-12-11T09:30:32.060Z,975.45
2017-12-11T09:31:41.846Z,975.39
2017-12-11T09:32:52.268Z,975.35
2017-12-11T09:34:01.863Z,975.45
2017-12-11T09:35:11.956Z,975.45
2017-12-11T09:36:21.763Z,975.44
2017-12-11T09:37:31.839Z,975.54
2017-12-11T09:38:41.395Z,975.46
2017-12-11T09:39:51.518Z,975.53
2017-12-11T09:41:01.334Z,975.44
2017-12-11T09:42:10.881Z,975.46
2017-12-11T09:43:20.699Z,975.42
2017-12-11T09:44:30.763Z,975.48
2017-12-11T09:45:40.836Z,975.56
2017-12-11T09:46:50.875Z,975.49
2017-12-11T09:48:00.927Z,975.52
2017-12-11T09:49:10.981Z,975.52
2017-12-11T09:50:20.768Z,975.58
2017-12-11T09:51:30.616Z,975.57
2017-12-11T09:52:40.676Z,975.63
2017-12-11T09:53:50.730Z,975.57
2017-12-11T09:55:00.800Z,975.72
2017-12-11T09:56:10.841Z,975.8
2017-12-11T09:57:20.660Z,975.7
2017-12-11T09:58:30.469Z,975.69
2017-12-11T09:59:40.271Z,975.67
2017-12-11T10:00:50.340Z,975.79
2017-12-11T10:02:01.249Z,975.74
2017-12-11T10:03:11.097Z,975.68
2017-12-11T10:04:21.173Z,975.6
2017-12-11T10:05:30.717Z,975.65
2017-12-11T10:06:40.778Z,975.72
2017-12-11T10:07:50.580Z,975.55
2017-12-11T10:09:00.417Z,975.67
2017-12-11T10:10:10.218Z,975.55
2017-12-11T10:11:20.026Z,975.56
2017-12-11T10:12:30.114Z,975.49
2017-12-11T10:13:39.908Z,975.6
2017-12-11T10:14:49.698Z,975.53
2017-12-11T10:15:59.790Z,975.51
2017-12-11T10:17:09.324Z,975.51
2017-12-11T10:18:19.379Z,975.51
2017-12-11T10:19:28.637Z,975.5
2017-12-11T10:20:38.435Z,975.62
2017-12-11T10:21:48.506Z,975.54
2017-12-11T10:22:58.296Z,975.54
2017-12-11T10:24:08.348Z,975.59
2017-12-11T10:25:18.479Z,975.63
2017-12-11T10:26:28.077Z,975.58
2017-12-11T10:27:38.143Z,975.6
2017-12-11T10:28:47.936Z,975.46
2017-12-11T10:29:57.749Z,975.58
2017-12-11T10:31:07.858Z,975.47
2017-12-11T10:32:17.404Z,975.5
2017-12-11T10:33:27.477Z,975.61
2017-12-11T10:34:37.550Z,975.62
2017-12-11T10:35:47.608Z,975.66
2017-12-11T10:36:57.395Z,975.65
2017-12-11T10:38:06.945Z,975.58
2017-12-11T10:39:16.751Z,975.48
2017-12-11T10:40:26.820Z,975.54
2017-12-11T10:41:36.890Z,975.55
2017-12-11T10:42:46.687Z,975.4
2017-12-11T10:43:56.749Z,975.56
2017-12-11T10:45:06.818Z,975.55
2017-12-11T10:46:17.020Z,975.4
2017-12-11T10:47:26.837Z,975.38
2017-12-11T10:48:36.921Z,975.51
2017-12-11T10:49:46.714Z,975.56
2017-12-11T10:50:56.817Z,975.42
2017-12-11T10:52:06.894Z,975.5
2017-12-11T10:53:16.481Z,975.48
2017-12-11T10:54:26.558Z,975.37
2017-12-11T10:55:36.353Z,975.25
2017-12-11T10:56:46.148Z,975.37
2017-12-11T10:57:56.000Z,975.35
2017-12-11T10:59:06.092Z,975.12
2017-12-11T11:00:16.159Z,975.2
2017-12-11T11:01:25.953Z,975.01
2017-12-11T11:02:35.767Z,975.23
2017-12-11T11:03:45.570Z,975.2
2017-12-11T11:04:55.630Z,975.01
2017-12-11T11:06:05.686Z,974.97
2017-12-11T11:07:15.763Z,974.98
2017-12-11T11:08:25.571Z,974.98
2017-12-11T11:09:36.227Z,974.87
2017-12-11T11:10:46.302Z,974.82
2017-12-11T11:11:55.867Z,974.64
2017-12-11T11:13:05.952Z,974.63
2017-12-11T11:14:16.070Z,974.6
2017-12-11T11:15:25.914Z,974.56
2017-12-11T11:16:35.985Z,974.53
2017-12-11T11:17:46.047Z,974.46
2017-12-11T11:18:55.847Z,974.54
2017-12-11T11:20:05.971Z,974.41
2017-12-11T11:21:16.051Z,974.36
2017-12-11T11:22:25.869Z,974.42
2017-12-11T11:23:35.680Z,974.47
2017-12-11T11:24:45.758Z,974.56
2017-12-11T11:25:55.820Z,974.57
2017-12-11T11:27:05.904Z,974.7
2017-12-11T11:28:15.692Z,974.54
2017-12-11T11:29:25.495Z,974.58
2017-12-11T11:30:35.600Z,974.56
2017-12-11T11:31:45.680Z,974.61
2017-12-11T11:32:55.814Z,974.72
2017-12-11T11:34:05.876Z,974.87
2017-12-11T11:35:15.935Z,974.76
2017-12-11T11:36:25.739Z,974.94
2017-12-11T11:38:45.417Z,974.85
2017-12-11T11:39:54.944Z,974.89
2017-12-11T11:41:05.012Z,975.04
2017-12-11T11:42:14.829Z,974.94
2017-12-11T11:43:24.889Z,975.06
2017-12-11T11:44:34.941Z,975
2017-12-11T11:45:44.990Z,974.95
2017-12-11T11:46:55.079Z,974.97
2017-12-11T11:48:04.877Z,974.95
2017-12-11T11:49:14.986Z,975.04
2017-12-11T11:50:25.077Z,975.02
2017-12-11T11:51:34.868Z,975.01
2017-12-11T11:52:44.410Z,974.95
2017-12-11T11:53:54.516Z,974.99
2017-12-11T11:55:04.566Z,975.03
2017-12-11T11:56:14.362Z,975.01
2017-12-11T11:57:23.891Z,974.92
2017-12-11T11:58:33.946Z,974.87
2017-12-11T11:59:43.486Z,974.91
2017-12-11T12:00:53.545Z,974.95
2017-12-11T12:02:03.597Z,975.06
2017-12-11T12:03:13.402Z,975.14
2017-12-11T12:04:22.921Z,975.01
2017-12-11T12:05:32.702Z,975.15
2017-12-11T12:06:42.520Z,975.17
2017-12-11T12:07:52.577Z,975.13
2017-12-11T12:09:02.633Z,975.14
2017-12-11T12:10:12.698Z,975.22
2017-12-11T12:11:22.751Z,975.17
2017-12-11T12:12:32.816Z,975.21
2017-12-11T12:13:42.892Z,975.03
2017-12-11T12:14:52.682Z,975.17
2017-12-11T12:16:02.743Z,975.09
2017-12-11T12:17:12.813Z,975.32
2017-12-11T12:18:22.926Z,975.19
2017-12-11T12:19:32.722Z,975.24
2017-12-11T12:20:42.512Z,975.31
2017-12-11T12:21:52.301Z,975.29
2017-12-11T12:23:02.362Z,975.26
2017-12-11T12:24:12.150Z,975.49
2017-12-11T12:25:22.214Z,975.57
2017-12-11T12:26:32.281Z,975.45
2017-12-11T12:27:42.129Z,975.54
2017-12-11T12:28:52.187Z,975.52
2017-12-11T12:30:02.074Z,975.59
2017-12-11T12:31:11.873Z,975.57
2017-12-11T12:32:21.672Z,975.57
2017-12-11T12:33:31.733Z,975.61
2017-12-11T12:34:41.780Z,975.71
2017-12-11T12:35:51.843Z,975.67
2017-12-11T12:37:01.900Z,975.68
2017-12-11T12:38:11.706Z,975.75
2017-12-11T12:39:21.765Z,975.8
2017-12-11T12:40:31.576Z,975.7
2017-12-11T12:41:41.640Z,975.66
2017-12-11T12:42:51.694Z,975.68
2017-12-11T12:44:01.761Z,975.78
2017-12-11T12:45:11.559Z,975.87
2017-12-11T12:46:21.612Z,975.82
2017-12-11T12:47:31.417Z,975.85
2017-12-11T12:48:41.532Z,975.86
2017-12-11T12:49:51.583Z,975.8
2017-12-11T12:51:01.656Z,975.74
2017-12-11T12:52:11.725Z,975.88
2017-12-11T12:53:21.509Z,975.98
2017-12-11T12:54:31.618Z,975.89
2017-12-11T12:55:41.672Z,976.05
2017-12-11T12:56:51.460Z,975.96
2017-12-11T12:58:01.278Z,976.06
2017-12-11T12:59:11.334Z,976.06
2017-12-11T13:00:20.619Z,975.99
2017-12-11T13:01:30.483Z,976.06
2017-12-11T13:02:40.555Z,976.03
2017-12-11T13:03:50.620Z,976.1
2017-12-11T13:05:00.702Z,976.18
2017-12-11T13:06:10.760Z,976.15
2017-12-11T13:07:20.825Z,976.14
2017-12-11T13:08:30.642Z,976.25
2017-12-11T13:09:40.804Z,976.26
2017-12-11T13:10:50.876Z,976.33
2017-12-11T13:12:00.946Z,976.31
2017-12-11T13:13:11.005Z,976.28
2017-12-11T13:14:20.544Z,976.29
2017-12-11T13:15:30.352Z,976.29
2017-12-11T13:16:40.415Z,976.24
2017-12-11T13:17:50.490Z,976.28
2017-12-11T13:19:00.298Z,976.18
2017-12-11T13:20:10.383Z,976.2
2017-12-11T13:21:20.186Z,976.19
2017-12-11T13:22:30.248Z,976.27
2017-12-11T13:23:40.330Z,976.29
2017-12-11T13:24:50.453Z,976.29
2017-12-11T13:26:00.521Z,976.23
2017-12-11T13:27:10.380Z,976.33
2017-12-11T13:28:19.924Z,976.2
2017-12-11T13:29:29.468Z,976.25
2017-12-11T13:30:39.275Z,976.2
2017-12-11T13:31:49.344Z,976.18
2017-12-11T13:32:59.428Z,976.28
2017-12-11T13:34:09.498Z,976.27
2017-12-11T13:35:19.556Z,976.27
2017-12-11T13:36:29.613Z,976.23
2017-12-11T13:37:39.676Z,976.23
2017-12-11T13:38:49.256Z,976.2
2017-12-11T13:39:59.088Z,976.24
2017-12-11T13:41:09.152Z,976.1
2017-12-11T13:42:18.978Z,976.07
2017-12-11T13:43:29.062Z,976.15
2017-12-11T13:44:39.124Z,976.1
2017-12-11T13:45:49.189Z,976.1
2017-12-11T13:46:59.252Z,976.2
2017-12-11T13:48:09.322Z,976.15
2017-12-11T13:49:19.438Z,976.15
2017-12-11T13:50:29.487Z,976.21
2017-12-11T13:51:39.563Z,976.24
2017-12-11T13:52:49.358Z,976.31
2017-12-11T13:53:59.426Z,976.34
2017-12-11T13:55:09.500Z,976.23
2017-12-11T13:56:19.564Z,976.33
2017-12-11T13:57:29.667Z,976.36
2017-12-11T13:58:39.734Z,976.35
2017-12-11T13:59:49.527Z,976.23
2017-12-11T14:01:00.173Z,976.32
2017-12-11T14:02:10.248Z,976.32
2017-12-11T14:03:20.061Z,976.42
2017-12-11T14:04:29.857Z,976.29
2017-12-11T14:05:39.678Z,976.26
2017-12-11T14:06:49.523Z,976.23
2017-12-11T14:07:59.342Z,976.27
2017-12-11T14:09:09.138Z,976.2
2017-12-11T14:10:19.325Z,976.13
2017-12-11T14:11:29.397Z,976.23
2017-12-11T14:12:39.199Z,976.2
2017-12-11T14:13:49.261Z,976.21
2017-12-11T14:15:00.091Z,976.13
2017-12-11T14:16:10.176Z,976.05
2017-12-11T14:17:19.710Z,976.04
2017-12-11T14:18:29.803Z,976.2
2017-12-11T14:19:39.907Z,976.01
2017-12-11T14:20:49.961Z,976.13
2017-12-11T14:21:59.512Z,976.13
2017-12-11T14:23:09.604Z,976.15
2017-12-11T14:24:19.708Z,975.92
2017-12-11T14:25:29.787Z,976.05
2017-12-11T14:26:39.854Z,975.9
2017-12-11T14:27:49.646Z,975.98
2017-12-11T14:28:59.709Z,976.01
2017-12-11T14:30:09.574Z,976.04
2017-12-11T14:31:19.644Z,976.08
2017-12-11T14:32:29.699Z,976.11
2017-12-11T14:33:39.529Z,976.06
2017-12-11T14:34:49.591Z,975.98
2017-12-11T14:35:59.718Z,975.97
2017-12-11T14:37:09.786Z,976.09
2017-12-11T14:38:19.860Z,976.03
2017-12-11T14:39:29.910Z,976
2017-12-11T14:40:39.708Z,976.01
2017-12-11T14:41:49.524Z,976.06
2017-12-11T14:42:58.791Z,976.03
2017-12-11T14:44:08.855Z,976
2017-12-11T14:45:18.946Z,976.04
2017-12-11T14:46:29.029Z,976.05
2017-12-11T14:47:39.001Z,976
2017-12-11T14:48:48.797Z,975.89
2017-12-11T14:49:59.429Z,975.89
2017-12-11T14:51:08.986Z,975.88
2017-12-11T14:52:18.533Z,975.98
2017-12-11T14:53:28.421Z,975.99
2017-12-11T14:54:38.507Z,976.05
2017-12-11T14:55:48.571Z,976.05
2017-12-11T14:56:58.400Z,976.1
2017-12-11T14:58:08.493Z,976.13
2017-12-11T14:59:18.300Z,976.08
2017-12-11T15:00:28.111Z,976.09
2017-12-11T15:01:37.653Z,976.12
2017-12-11T15:02:47.761Z,976.07
2017-12-11T15:03:57.568Z,976.06
2017-12-11T15:05:06.839Z,976.07
2017-12-11T15:06:16.904Z,976.04
2017-12-11T15:07:26.443Z,976